sensor_id;sensor_type;location;lat;lon;timestamp;P1;durP1;ratioP1;P2;durP2;ratioP2
8040;SDS011;4063;48.140;10.250;2022-11-20T00:01:59;7.20;;;6.50;;
8040;SDS011;4063;48.140;10.250;2022-11-20T00:04:25;7.87;;;5.70;;
8040;SDS011;4063;48.140;10.250;2022-11-20T00:06:51;7.07;;;6.27;;
8040;SDS011;4063;48.140;10.250;2022-11-20T00:09:17;6.70;;;6.00;;
8040;SDS011;4063;48.140;10.250;2022-11-20T00:11:45;6.97;;;6.27;;
8040;SDS011;4063;48.140;10.250;2022-11-20T00:14:11;7.70;;;6.33;;
8040;SDS011;4063;48.140;10.250;2022-11-20T00:16:37;7.73;;;6.37;;
8040;SDS011;4063;48.140;10.250;2022-11-20T00:19:03;8.07;;;6.57;;
8040;SDS011;4063;48.140;10.250;2022-11-20T00:21:29;7.30;;;6.67;;
8040;SDS011;4063;48.140;10.250;2022-11-20T00:23:55;7.53;;;6.83;;
8040;SDS011;4063;48.140;10.250;2022-11-20T00:26:22;8.43;;;7.23;;
8040;SDS011;4063;48.140;10.250;2022-11-20T00:28:49;8.00;;;6.77;;
8040;SDS011;4063;48.140;10.250;2022-11-20T00:31:16;8.07;;;7.27;;
8040;SDS011;4063;48.140;10.250;2022-11-20T00:33:42;7.40;;;6.70;;
8040;SDS011;4063;48.140;10.250;2022-11-20T00:36:10;7.63;;;6.70;;
8040;SDS011;4063;48.140;10.250;2022-11-20T00:38:36;8.17;;;6.97;;
8040;SDS011;4063;48.140;10.250;2022-11-20T00:41:03;8.03;;;7.07;;
8040;SDS011;4063;48.140;10.250;2022-11-20T00:43:29;7.93;;;7.13;;
8040;SDS011;4063;48.140;10.250;2022-11-20T00:45:59;8.80;;;7.20;;
8040;SDS011;4063;48.140;10.250;2022-11-20T00:48:25;8.80;;;6.87;;
8040;SDS011;4063;48.140;10.250;2022-11-20T00:50:51;9.37;;;6.37;;
8040;SDS011;4063;48.140;10.250;2022-11-20T00:53:18;7.03;;;6.33;;
8040;SDS011;4063;48.140;10.250;2022-11-20T00:55:52;9.07;;;7.20;;
8040;SDS011;4063;48.140;10.250;2022-11-20T00:58:18;7.30;;;6.27;;
8040;SDS011;4063;48.140;10.250;2022-11-20T01:00:44;7.90;;;6.83;;
8040;SDS011;4063;48.140;10.250;2022-11-20T01:03:10;7.80;;;6.97;;
8040;SDS011;4063;48.140;10.250;2022-11-20T01:05:36;8.53;;;6.20;;
8040;SDS011;4063;48.140;10.250;2022-11-20T01:08:02;6.70;;;5.70;;
8040;SDS011;4063;48.140;10.250;2022-11-20T01:10:28;6.93;;;6.23;;
8040;SDS011;4063;48.140;10.250;2022-11-20T01:12:54;9.00;;;6.67;;
8040;SDS011;4063;48.140;10.250;2022-11-20T01:15:38;8.00;;;6.47;;
8040;SDS011;4063;48.140;10.250;2022-11-20T01:18:04;8.10;;;6.43;;
8040;SDS011;4063;48.140;10.250;2022-11-20T01:20:34;8.63;;;6.73;;
8040;SDS011;4063;48.140;10.250;2022-11-20T01:23:00;6.97;;;6.07;;
8040;SDS011;4063;48.140;10.250;2022-11-20T01:25:27;7.00;;;6.37;;
8040;SDS011;4063;48.140;10.250;2022-11-20T01:27:53;10.77;;;6.70;;
8040;SDS011;4063;48.140;10.250;2022-11-20T01:30:19;6.70;;;6.10;;
8040;SDS011;4063;48.140;10.250;2022-11-20T01:32:45;7.37;;;6.60;;
8040;SDS011;4063;48.140;10.250;2022-11-20T01:35:11;7.63;;;5.83;;
8040;SDS011;4063;48.140;10.250;2022-11-20T01:37:36;6.70;;;6.10;;
8040;SDS011;4063;48.140;10.250;2022-11-20T01:40:02;7.60;;;6.50;;
8040;SDS011;4063;48.140;10.250;2022-11-20T01:42:29;6.33;;;5.73;;
8040;SDS011;4063;48.140;10.250;2022-11-20T01:47:58;7.43;;;6.03;;
8040;SDS011;4063;48.140;10.250;2022-11-20T01:50:25;6.57;;;5.97;;
8040;SDS011;4063;48.140;10.250;2022-11-20T01:52:53;8.03;;;6.17;;
8040;SDS011;4063;48.140;10.250;2022-11-20T01:55:25;7.10;;;6.40;;
8040;SDS011;4063;48.140;10.250;2022-11-20T01:57:51;7.73;;;6.20;;
8040;SDS011;4063;48.140;10.250;2022-11-20T02:00:18;6.63;;;6.00;;
8040;SDS011;4063;48.140;10.250;2022-11-20T02:02:48;7.67;;;5.90;;
8040;SDS011;4063;48.140;10.250;2022-11-20T02:07:45;8.50;;;5.87;;
8040;SDS011;4063;48.140;10.250;2022-11-20T02:10:12;7.63;;;6.40;;
8040;SDS011;4063;48.140;10.250;2022-11-20T02:12:38;8.93;;;6.13;;
8040;SDS011;4063;48.140;10.250;2022-11-20T02:15:33;9.63;;;6.23;;
8040;SDS011;4063;48.140;10.250;2022-11-20T02:17:59;9.67;;;6.43;;
8040;SDS011;4063;48.140;10.250;2022-11-20T02:20:25;8.27;;;6.03;;
8040;SDS011;4063;48.140;10.250;2022-11-20T02:25:20;7.13;;;6.40;;
8040;SDS011;4063;48.140;10.250;2022-11-20T02:27:46;7.20;;;6.50;;
8040;SDS011;4063;48.140;10.250;2022-11-20T02:30:13;7.30;;;6.60;;
8040;SDS011;4063;48.140;10.250;2022-11-20T02:32:39;7.17;;;6.40;;
8040;SDS011;4063;48.140;10.250;2022-11-20T02:37:43;7.27;;;6.57;;
8040;SDS011;4063;48.140;10.250;2022-11-20T02:40:10;7.80;;;7.00;;
8040;SDS011;4063;48.140;10.250;2022-11-20T02:42:36;7.77;;;6.60;;
8040;SDS011;4063;48.140;10.250;2022-11-20T02:45:03;7.47;;;6.77;;
8040;SDS011;4063;48.140;10.250;2022-11-20T02:47:29;7.50;;;6.70;;
8040;SDS011;4063;48.140;10.250;2022-11-20T02:49:55;7.80;;;6.57;;
8040;SDS011;4063;48.140;10.250;2022-11-20T02:52:21;9.03;;;6.50;;
8040;SDS011;4063;48.140;10.250;2022-11-20T02:54:47;7.07;;;6.30;;
8040;SDS011;4063;48.140;10.250;2022-11-20T02:57:13;7.70;;;6.83;;
8040;SDS011;4063;48.140;10.250;2022-11-20T02:59:39;6.93;;;6.23;;
8040;SDS011;4063;48.140;10.250;2022-11-20T03:02:05;6.83;;;6.20;;
8040;SDS011;4063;48.140;10.250;2022-11-20T03:04:31;6.87;;;6.23;;
8040;SDS011;4063;48.140;10.250;2022-11-20T03:06:57;7.00;;;6.30;;
8040;SDS011;4063;48.140;10.250;2022-11-20T03:09:23;7.10;;;6.50;;
8040;SDS011;4063;48.140;10.250;2022-11-20T03:11:49;6.43;;;5.60;;
8040;SDS011;4063;48.140;10.250;2022-11-20T03:14:14;9.63;;;5.93;;
8040;SDS011;4063;48.140;10.250;2022-11-20T03:16:40;7.07;;;6.37;;
8040;SDS011;4063;48.140;10.250;2022-11-20T03:19:06;7.30;;;6.37;;
8040;SDS011;4063;48.140;10.250;2022-11-20T03:21:33;8.63;;;6.57;;
8040;SDS011;4063;48.140;10.250;2022-11-20T03:23:59;7.03;;;6.20;;
8040;SDS011;4063;48.140;10.250;2022-11-20T03:26:25;7.40;;;6.70;;
8040;SDS011;4063;48.140;10.250;2022-11-20T03:28:55;7.80;;;6.37;;
8040;SDS011;4063;48.140;10.250;2022-11-20T03:31:32;6.57;;;5.97;;
8040;SDS011;4063;48.140;10.250;2022-11-20T03:33:59;5.83;;;5.33;;
8040;SDS011;4063;48.140;10.250;2022-11-20T03:36:25;8.00;;;6.07;;
8040;SDS011;4063;48.140;10.250;2022-11-20T03:38:52;7.83;;;6.10;;
8040;SDS011;4063;48.140;10.250;2022-11-20T03:41:19;8.93;;;5.90;;
8040;SDS011;4063;48.140;10.250;2022-11-20T03:43:49;6.60;;;5.90;;
8040;SDS011;4063;48.140;10.250;2022-11-20T03:46:15;6.37;;;5.77;;
8040;SDS011;4063;48.140;10.250;2022-11-20T03:48:41;7.33;;;6.40;;
8040;SDS011;4063;48.140;10.250;2022-11-20T03:53:37;6.90;;;6.00;;
8040;SDS011;4063;48.140;10.250;2022-11-20T03:56:03;6.93;;;5.97;;
8040;SDS011;4063;48.140;10.250;2022-11-20T03:58:29;6.20;;;5.60;;
8040;SDS011;4063;48.140;10.250;2022-11-20T04:00:55;8.37;;;5.73;;
8040;SDS011;4063;48.140;10.250;2022-11-20T04:03:21;6.00;;;5.30;;
8040;SDS011;4063;48.140;10.250;2022-11-20T04:05:47;6.27;;;5.70;;
8040;SDS011;4063;48.140;10.250;2022-11-20T04:08:15;6.70;;;6.10;;
8040;SDS011;4063;48.140;10.250;2022-11-20T04:10:43;6.90;;;6.20;;
8040;SDS011;4063;48.140;10.250;2022-11-20T04:13:11;6.40;;;5.80;;
8040;SDS011;4063;48.140;10.250;2022-11-20T04:15:37;7.70;;;6.37;;
8040;SDS011;4063;48.140;10.250;2022-11-20T04:18:03;10.23;;;6.47;;
8040;SDS011;4063;48.140;10.250;2022-11-20T04:20:28;6.83;;;5.53;;
8040;SDS011;4063;48.140;10.250;2022-11-20T04:22:54;6.97;;;5.80;;
8040;SDS011;4063;48.140;10.250;2022-11-20T04:25:20;6.03;;;5.43;;
8040;SDS011;4063;48.140;10.250;2022-11-20T04:27:46;7.63;;;6.40;;
8040;SDS011;4063;48.140;10.250;2022-11-20T04:30:12;6.70;;;6.00;;
8040;SDS011;4063;48.140;10.250;2022-11-20T04:32:38;6.77;;;6.17;;
8040;SDS011;4063;48.140;10.250;2022-11-20T04:35:04;6.73;;;5.90;;
8040;SDS011;4063;48.140;10.250;2022-11-20T04:37:30;6.10;;;5.60;;
8040;SDS011;4063;48.140;10.250;2022-11-20T04:39:56;6.03;;;5.43;;
8040;SDS011;4063;48.140;10.250;2022-11-20T04:42:22;6.57;;;5.93;;
8040;SDS011;4063;48.140;10.250;2022-11-20T04:44:54;7.20;;;6.13;;
8040;SDS011;4063;48.140;10.250;2022-11-20T04:47:20;6.80;;;6.10;;
8040;SDS011;4063;48.140;10.250;2022-11-20T04:49:46;5.83;;;5.33;;
8040;SDS011;4063;48.140;10.250;2022-11-20T04:52:13;7.90;;;6.63;;
8040;SDS011;4063;48.140;10.250;2022-11-20T04:54:39;7.00;;;6.30;;
8040;SDS011;4063;48.140;10.250;2022-11-20T04:57:07;7.43;;;6.50;;
8040;SDS011;4063;48.140;10.250;2022-11-20T04:59:33;7.93;;;6.57;;
8040;SDS011;4063;48.140;10.250;2022-11-20T05:01:59;8.70;;;7.63;;
8040;SDS011;4063;48.140;10.250;2022-11-20T05:04:25;7.97;;;6.87;;
8040;SDS011;4063;48.140;10.250;2022-11-20T05:06:51;8.47;;;7.40;;
8040;SDS011;4063;48.140;10.250;2022-11-20T05:09:17;9.20;;;7.60;;
8040;SDS011;4063;48.140;10.250;2022-11-20T05:11:42;8.43;;;7.50;;
8040;SDS011;4063;48.140;10.250;2022-11-20T05:14:08;8.90;;;8.00;;
8040;SDS011;4063;48.140;10.250;2022-11-20T05:16:34;9.43;;;8.47;;
8040;SDS011;4063;48.140;10.250;2022-11-20T05:19:01;8.43;;;7.50;;
8040;SDS011;4063;48.140;10.250;2022-11-20T05:21:27;8.53;;;7.77;;
8040;SDS011;4063;48.140;10.250;2022-11-20T05:23:52;9.17;;;8.27;;
8040;SDS011;4063;48.140;10.250;2022-11-20T05:26:22;9.03;;;8.20;;
8040;SDS011;4063;48.140;10.250;2022-11-20T05:28:48;8.83;;;7.87;;
8040;SDS011;4063;48.140;10.250;2022-11-20T05:31:15;9.07;;;7.67;;
8040;SDS011;4063;48.140;10.250;2022-11-20T05:33:42;8.43;;;7.63;;
8040;SDS011;4063;48.140;10.250;2022-11-20T05:36:09;9.37;;;8.10;;
8040;SDS011;4063;48.140;10.250;2022-11-20T05:38:35;9.03;;;8.13;;
8040;SDS011;4063;48.140;10.250;2022-11-20T05:41:05;8.20;;;7.40;;
8040;SDS011;4063;48.140;10.250;2022-11-20T05:43:31;8.30;;;7.60;;
8040;SDS011;4063;48.140;10.250;2022-11-20T05:45:58;8.80;;;8.00;;
8040;SDS011;4063;48.140;10.250;2022-11-20T05:48:24;9.30;;;7.50;;
8040;SDS011;4063;48.140;10.250;2022-11-20T05:50:50;8.80;;;7.90;;
8040;SDS011;4063;48.140;10.250;2022-11-20T05:53:16;9.63;;;7.93;;
8040;SDS011;4063;48.140;10.250;2022-11-20T05:55:42;8.63;;;7.73;;
8040;SDS011;4063;48.140;10.250;2022-11-20T05:58:08;8.87;;;7.70;;
8040;SDS011;4063;48.140;10.250;2022-11-20T06:00:34;7.53;;;6.73;;
8040;SDS011;4063;48.140;10.250;2022-11-20T06:03:00;8.83;;;7.63;;
8040;SDS011;4063;48.140;10.250;2022-11-20T06:05:26;8.30;;;7.43;;
8040;SDS011;4063;48.140;10.250;2022-11-20T06:07:52;8.23;;;7.50;;
8040;SDS011;4063;48.140;10.250;2022-11-20T06:10:18;8.10;;;7.23;;
8040;SDS011;4063;48.140;10.250;2022-11-20T06:12:44;8.07;;;7.10;;
8040;SDS011;4063;48.140;10.250;2022-11-20T06:15:10;7.57;;;6.87;;
8040;SDS011;4063;48.140;10.250;2022-11-20T06:17:36;7.77;;;7.07;;
8040;SDS011;4063;48.140;10.250;2022-11-20T06:20:02;7.43;;;6.60;;
8040;SDS011;4063;48.140;10.250;2022-11-20T06:22:28;7.90;;;7.10;;
8040;SDS011;4063;48.140;10.250;2022-11-20T06:24:54;7.67;;;5.87;;
8040;SDS011;4063;48.140;10.250;2022-11-20T06:27:20;7.10;;;6.37;;
8040;SDS011;4063;48.140;10.250;2022-11-20T06:29:46;6.77;;;5.90;;
8040;SDS011;4063;48.140;10.250;2022-11-20T06:32:12;7.93;;;6.30;;
8040;SDS011;4063;48.140;10.250;2022-11-20T06:34:38;6.73;;;6.03;;
8040;SDS011;4063;48.140;10.250;2022-11-20T06:37:05;7.90;;;5.90;;
8040;SDS011;4063;48.140;10.250;2022-11-20T06:39:31;6.63;;;5.90;;
8040;SDS011;4063;48.140;10.250;2022-11-20T06:41:57;6.07;;;5.57;;
8040;SDS011;4063;48.140;10.250;2022-11-20T06:44:23;5.63;;;5.10;;
8040;SDS011;4063;48.140;10.250;2022-11-20T06:46:49;6.37;;;5.47;;
8040;SDS011;4063;48.140;10.250;2022-11-20T06:49:15;6.20;;;5.60;;
8040;SDS011;4063;48.140;10.250;2022-11-20T06:51:41;6.93;;;6.07;;
8040;SDS011;4063;48.140;10.250;2022-11-20T06:54:07;7.77;;;6.60;;
8040;SDS011;4063;48.140;10.250;2022-11-20T06:56:32;6.83;;;6.13;;
8040;SDS011;4063;48.140;10.250;2022-11-20T06:58:58;7.10;;;6.20;;
8040;SDS011;4063;48.140;10.250;2022-11-20T07:01:29;9.07;;;5.77;;
8040;SDS011;4063;48.140;10.250;2022-11-20T07:03:54;7.10;;;5.73;;
8040;SDS011;4063;48.140;10.250;2022-11-20T07:06:20;6.37;;;5.77;;
8040;SDS011;4063;48.140;10.250;2022-11-20T07:08:46;8.30;;;6.97;;
8040;SDS011;4063;48.140;10.250;2022-11-20T07:11:13;6.10;;;5.50;;
8040;SDS011;4063;48.140;10.250;2022-11-20T07:13:39;8.27;;;6.33;;
8040;SDS011;4063;48.140;10.250;2022-11-20T07:16:05;7.07;;;5.90;;
8040;SDS011;4063;48.140;10.250;2022-11-20T07:18:34;6.60;;;5.97;;
8040;SDS011;4063;48.140;10.250;2022-11-20T07:21:04;7.20;;;6.50;;
8040;SDS011;4063;48.140;10.250;2022-11-20T07:23:30;8.23;;;6.63;;
8040;SDS011;4063;48.140;10.250;2022-11-20T07:25:56;8.40;;;6.17;;
8040;SDS011;4063;48.140;10.250;2022-11-20T07:28:22;6.67;;;5.77;;
8040;SDS011;4063;48.140;10.250;2022-11-20T07:30:52;6.57;;;5.77;;
8040;SDS011;4063;48.140;10.250;2022-11-20T07:33:18;6.13;;;5.40;;
8040;SDS011;4063;48.140;10.250;2022-11-20T07:35:44;6.43;;;5.73;;
8040;SDS011;4063;48.140;10.250;2022-11-20T07:38:10;5.77;;;5.10;;
8040;SDS011;4063;48.140;10.250;2022-11-20T07:40:36;6.97;;;5.67;;
8040;SDS011;4063;48.140;10.250;2022-11-20T07:43:02;6.23;;;5.40;;
8040;SDS011;4063;48.140;10.250;2022-11-20T07:45:28;5.80;;;5.30;;
8040;SDS011;4063;48.140;10.250;2022-11-20T07:47:54;6.20;;;5.60;;
8040;SDS011;4063;48.140;10.250;2022-11-20T07:50:20;6.77;;;5.53;;
8040;SDS011;4063;48.140;10.250;2022-11-20T07:52:46;7.23;;;4.80;;
8040;SDS011;4063;48.140;10.250;2022-11-20T07:55:12;6.55;;;5.75;;
8040;SDS011;4063;48.140;10.250;2022-11-20T07:57:38;10.77;;;9.17;;
8040;SDS011;4063;48.140;10.250;2022-11-20T08:00:05;6.43;;;5.43;;
8040;SDS011;4063;48.140;10.250;2022-11-20T08:02:33;9.73;;;7.50;;
8040;SDS011;4063;48.140;10.250;2022-11-20T08:04:59;5.37;;;4.60;;
8040;SDS011;4063;48.140;10.250;2022-11-20T08:07:25;6.07;;;4.60;;
8040;SDS011;4063;48.140;10.250;2022-11-20T08:09:51;6.57;;;4.60;;
8040;SDS011;4063;48.140;10.250;2022-11-20T08:12:18;5.97;;;4.07;;
8040;SDS011;4063;48.140;10.250;2022-11-20T08:15:04;4.97;;;4.57;;
8040;SDS011;4063;48.140;10.250;2022-11-20T08:17:30;6.47;;;4.13;;
8040;SDS011;4063;48.140;10.250;2022-11-20T08:19:56;4.77;;;4.07;;
8040;SDS011;4063;48.140;10.250;2022-11-20T08:22:22;4.07;;;3.67;;
8040;SDS011;4063;48.140;10.250;2022-11-20T08:24:48;5.23;;;4.47;;
8040;SDS011;4063;48.140;10.250;2022-11-20T08:27:14;3.33;;;3.03;;
8040;SDS011;4063;48.140;10.250;2022-11-20T08:29:40;4.57;;;3.90;;
8040;SDS011;4063;48.140;10.250;2022-11-20T08:32:06;6.30;;;4.93;;
8040;SDS011;4063;48.140;10.250;2022-11-20T08:34:32;3.83;;;3.50;;
8040;SDS011;4063;48.140;10.250;2022-11-20T08:36:58;7.67;;;3.77;;
8040;SDS011;4063;48.140;10.250;2022-11-20T08:39:24;3.40;;;3.10;;
8040;SDS011;4063;48.140;10.250;2022-11-20T08:41:50;3.63;;;3.30;;
8040;SDS011;4063;48.140;10.250;2022-11-20T08:44:16;4.47;;;3.47;;
8040;SDS011;4063;48.140;10.250;2022-11-20T08:46:42;6.07;;;3.20;;
8040;SDS011;4063;48.140;10.250;2022-11-20T08:49:12;3.60;;;3.30;;
8040;SDS011;4063;48.140;10.250;2022-11-20T08:51:38;3.33;;;2.90;;
8040;SDS011;4063;48.140;10.250;2022-11-20T08:54:05;9.50;;;3.63;;
8040;SDS011;4063;48.140;10.250;2022-11-20T08:56:31;3.93;;;3.33;;
8040;SDS011;4063;48.140;10.250;2022-11-20T08:58:57;4.20;;;3.57;;
8040;SDS011;4063;48.140;10.250;2022-11-20T09:01:24;3.10;;;2.80;;
8040;SDS011;4063;48.140;10.250;2022-11-20T09:03:50;6.00;;;3.00;;
8040;SDS011;4063;48.140;10.250;2022-11-20T09:06:17;2.77;;;2.57;;
8040;SDS011;4063;48.140;10.250;2022-11-20T09:08:43;3.13;;;2.70;;
8040;SDS011;4063;48.140;10.250;2022-11-20T09:11:09;4.30;;;2.77;;
8040;SDS011;4063;48.140;10.250;2022-11-20T09:13:35;2.90;;;2.50;;
8040;SDS011;4063;48.140;10.250;2022-11-20T09:16:03;3.97;;;2.80;;
8040;SDS011;4063;48.140;10.250;2022-11-20T09:18:29;2.97;;;2.70;;
8040;SDS011;4063;48.140;10.250;2022-11-20T09:21:00;2.90;;;2.60;;
8040;SDS011;4063;48.140;10.250;2022-11-20T09:23:26;2.73;;;2.23;;
8040;SDS011;4063;48.140;10.250;2022-11-20T09:25:52;2.30;;;2.10;;
8040;SDS011;4063;48.140;10.250;2022-11-20T09:28:20;2.30;;;2.10;;
8040;SDS011;4063;48.140;10.250;2022-11-20T09:30:47;2.40;;;2.20;;
8040;SDS011;4063;48.140;10.250;2022-11-20T09:33:12;3.00;;;2.17;;
8040;SDS011;4063;48.140;10.250;2022-11-20T09:35:38;2.27;;;2.07;;
8040;SDS011;4063;48.140;10.250;2022-11-20T09:38:08;2.00;;;1.80;;
8040;SDS011;4063;48.140;10.250;2022-11-20T09:40:36;1.90;;;1.77;;
8040;SDS011;4063;48.140;10.250;2022-11-20T09:48:15;3.13;;;2.80;;
8040;SDS011;4063;48.140;10.250;2022-11-20T09:50:56;2.10;;;1.90;;
8040;SDS011;4063;48.140;10.250;2022-11-20T09:53:49;2.73;;;1.87;;
8040;SDS011;4063;48.140;10.250;2022-11-20T09:56:16;1.80;;;1.70;;
8040;SDS011;4063;48.140;10.250;2022-11-20T09:58:46;1.93;;;1.80;;
8040;SDS011;4063;48.140;10.250;2022-11-20T10:01:16;1.90;;;1.70;;
8040;SDS011;4063;48.140;10.250;2022-11-20T10:03:57;1.80;;;1.70;;
8040;SDS011;4063;48.140;10.250;2022-11-20T10:06:28;2.03;;;1.50;;
8040;SDS011;4063;48.140;10.250;2022-11-20T10:08:59;1.67;;;1.47;;
8040;SDS011;4063;48.140;10.250;2022-11-20T10:11:33;1.50;;;1.40;;
8040;SDS011;4063;48.140;10.250;2022-11-20T10:14:13;3.30;;;1.80;;
8040;SDS011;4063;48.140;10.250;2022-11-20T10:16:49;1.70;;;1.60;;
8040;SDS011;4063;48.140;10.250;2022-11-20T10:22:08;1.83;;;1.73;;
8040;SDS011;4063;48.140;10.250;2022-11-20T10:24:44;1.97;;;1.77;;
8040;SDS011;4063;48.140;10.250;2022-11-20T10:29:43;2.17;;;1.80;;
8040;SDS011;4063;48.140;10.250;2022-11-20T10:32:18;3.17;;;2.00;;
8040;SDS011;4063;48.140;10.250;2022-11-20T10:37:18;3.03;;;2.10;;
8040;SDS011;4063;48.140;10.250;2022-11-20T10:39:50;3.37;;;2.00;;
8040;SDS011;4063;48.140;10.250;2022-11-20T10:42:19;3.37;;;2.10;;
8040;SDS011;4063;48.140;10.250;2022-11-20T10:44:51;2.13;;;1.77;;
8040;SDS011;4063;48.140;10.250;2022-11-20T10:47:27;2.40;;;2.20;;
8040;SDS011;4063;48.140;10.250;2022-11-20T10:49:54;3.97;;;2.17;;
8040;SDS011;4063;48.140;10.250;2022-11-20T10:54:58;2.43;;;2.23;;
8040;SDS011;4063;48.140;10.250;2022-11-20T11:00:13;4.20;;;2.50;;
8040;SDS011;4063;48.140;10.250;2022-11-20T11:02:51;2.77;;;2.10;;
8040;SDS011;4063;48.140;10.250;2022-11-20T11:05:32;1.67;;;1.57;;
8040;SDS011;4063;48.140;10.250;2022-11-20T11:07:59;2.80;;;2.57;;
8040;SDS011;4063;48.140;10.250;2022-11-20T11:13:00;2.13;;;1.90;;
8040;SDS011;4063;48.140;10.250;2022-11-20T11:17:52;2.33;;;2.13;;
8040;SDS011;4063;48.140;10.250;2022-11-20T11:20:19;2.10;;;1.90;;
8040;SDS011;4063;48.140;10.250;2022-11-20T11:22:51;1.80;;;1.70;;
8040;SDS011;4063;48.140;10.250;2022-11-20T11:25:22;2.73;;;2.00;;
8040;SDS011;4063;48.140;10.250;2022-11-20T11:27:48;4.73;;;4.17;;
8040;SDS011;4063;48.140;10.250;2022-11-20T11:30:16;2.40;;;1.80;;
8040;SDS011;4063;48.140;10.250;2022-11-20T11:32:42;2.30;;;2.10;;
8040;SDS011;4063;48.140;10.250;2022-11-20T11:35:20;3.73;;;2.80;;
8040;SDS011;4063;48.140;10.250;2022-11-20T11:37:46;8.90;;;6.90;;
8040;SDS011;4063;48.140;10.250;2022-11-20T11:40:13;1.83;;;1.73;;
8040;SDS011;4063;48.140;10.250;2022-11-20T11:42:43;2.00;;;1.80;;
8040;SDS011;4063;48.140;10.250;2022-11-20T11:45:16;2.40;;;1.70;;
8040;SDS011;4063;48.140;10.250;2022-11-20T11:52:45;1.97;;;1.87;;
8040;SDS011;4063;48.140;10.250;2022-11-20T11:55:25;2.30;;;2.10;;
8040;SDS011;4063;48.140;10.250;2022-11-20T11:57:54;3.37;;;2.33;;
8040;SDS011;4063;48.140;10.250;2022-11-20T12:00:21;4.60;;;2.03;;
8040;SDS011;4063;48.140;10.250;2022-11-20T12:05:21;4.67;;;2.73;;
8040;SDS011;4063;48.140;10.250;2022-11-20T12:15:46;3.17;;;2.13;;
8040;SDS011;4063;48.140;10.250;2022-11-20T12:18:17;2.40;;;1.77;;
8040;SDS011;4063;48.140;10.250;2022-11-20T12:21:06;2.13;;;1.93;;
8040;SDS011;4063;48.140;10.250;2022-11-20T12:29:06;2.50;;;2.03;;
8040;SDS011;4063;48.140;10.250;2022-11-20T12:34:03;4.33;;;2.50;;
8040;SDS011;4063;48.140;10.250;2022-11-20T12:36:38;3.27;;;2.37;;
8040;SDS011;4063;48.140;10.250;2022-11-20T12:39:14;1.83;;;1.50;;
8040;SDS011;4063;48.140;10.250;2022-11-20T12:41:48;1.80;;;1.70;;
8040;SDS011;4063;48.140;10.250;2022-11-20T12:50:05;2.50;;;2.10;;
8040;SDS011;4063;48.140;10.250;2022-11-20T12:52:51;3.40;;;1.83;;
8040;SDS011;4063;48.140;10.250;2022-11-20T12:55:25;1.80;;;1.70;;
8040;SDS011;4063;48.140;10.250;2022-11-20T12:57:55;2.13;;;1.87;;
8040;SDS011;4063;48.140;10.250;2022-11-20T13:00:24;1.93;;;1.80;;
8040;SDS011;4063;48.140;10.250;2022-11-20T13:08:34;2.33;;;1.80;;
8040;SDS011;4063;48.140;10.250;2022-11-20T13:11:15;1.50;;;1.40;;
8040;SDS011;4063;48.140;10.250;2022-11-20T13:16:33;1.73;;;1.50;;
8040;SDS011;4063;48.140;10.250;2022-11-20T13:19:08;1.87;;;1.40;;
8040;SDS011;4063;48.140;10.250;2022-11-20T13:21:42;3.30;;;1.60;;
8040;SDS011;4063;48.140;10.250;2022-11-20T13:26:38;1.57;;;1.47;;
8040;SDS011;4063;48.140;10.250;2022-11-20T13:29:11;2.43;;;2.23;;
8040;SDS011;4063;48.140;10.250;2022-11-20T13:31:38;4.33;;;3.03;;
8040;SDS011;4063;48.140;10.250;2022-11-20T13:34:11;5.47;;;3.43;;
8040;SDS011;4063;48.140;10.250;2022-11-20T13:36:47;2.77;;;2.47;;
8040;SDS011;4063;48.140;10.250;2022-11-20T13:39:23;2.20;;;2.00;;
8040;SDS011;4063;48.140;10.250;2022-11-20T13:41:57;4.73;;;2.73;;
8040;SDS011;4063;48.140;10.250;2022-11-20T13:46:52;1.97;;;1.77;;
8040;SDS011;4063;48.140;10.250;2022-11-20T13:51:48;1.47;;;1.30;;
8040;SDS011;4063;48.140;10.250;2022-11-20T14:02:29;2.20;;;2.00;;
8040;SDS011;4063;48.140;10.250;2022-11-20T14:04:57;2.43;;;1.50;;
8040;SDS011;4063;48.140;10.250;2022-11-20T14:07:37;1.40;;;1.30;;
8040;SDS011;4063;48.140;10.250;2022-11-20T14:10:04;2.63;;;1.60;;
8040;SDS011;4063;48.140;10.250;2022-11-20T14:12:31;2.33;;;1.90;;
8040;SDS011;4063;48.140;10.250;2022-11-20T14:14:57;3.40;;;1.87;;
8040;SDS011;4063;48.140;10.250;2022-11-20T14:17:31;1.73;;;1.60;;
8040;SDS011;4063;48.140;10.250;2022-11-20T14:20:02;2.43;;;1.87;;
8040;SDS011;4063;48.140;10.250;2022-11-20T14:22:29;3.23;;;2.50;;
8040;SDS011;4063;48.140;10.250;2022-11-20T14:27:27;2.30;;;2.00;;
8040;SDS011;4063;48.140;10.250;2022-11-20T14:29:53;2.87;;;2.07;;
8040;SDS011;4063;48.140;10.250;2022-11-20T14:32:21;3.27;;;2.23;;
8040;SDS011;4063;48.140;10.250;2022-11-20T14:34:48;2.90;;;2.00;;
8040;SDS011;4063;48.140;10.250;2022-11-20T14:37:20;3.03;;;2.13;;
8040;SDS011;4063;48.140;10.250;2022-11-20T14:39:54;4.50;;;2.40;;
8040;SDS011;4063;48.140;10.250;2022-11-20T14:42:21;3.77;;;2.57;;
8040;SDS011;4063;48.140;10.250;2022-11-20T14:44:48;2.53;;;2.33;;
8040;SDS011;4063;48.140;10.250;2022-11-20T14:47:15;2.67;;;2.47;;
8040;SDS011;4063;48.140;10.250;2022-11-20T14:49:43;2.80;;;2.50;;
8040;SDS011;4063;48.140;10.250;2022-11-20T14:52:19;3.27;;;2.97;;
8040;SDS011;4063;48.140;10.250;2022-11-20T14:59:50;4.57;;;2.90;;
8040;SDS011;4063;48.140;10.250;2022-11-20T15:02:16;3.67;;;2.60;;
8040;SDS011;4063;48.140;10.250;2022-11-20T15:04:49;2.97;;;2.67;;
8040;SDS011;4063;48.140;10.250;2022-11-20T15:07:29;3.03;;;2.60;;
8040;SDS011;4063;48.140;10.250;2022-11-20T15:09:59;2.67;;;2.47;;
8040;SDS011;4063;48.140;10.250;2022-11-20T15:12:25;14.30;;;12.90;;
8040;SDS011;4063;48.140;10.250;2022-11-20T15:14:51;9.80;;;7.20;;
8040;SDS011;4063;48.140;10.250;2022-11-20T15:17:17;8.40;;;7.50;;
8040;SDS011;4063;48.140;10.250;2022-11-20T15:19:43;6.43;;;3.10;;
8040;SDS011;4063;48.140;10.250;2022-11-20T15:22:10;4.03;;;2.40;;
8040;SDS011;4063;48.140;10.250;2022-11-20T15:24:41;3.17;;;2.47;;
8040;SDS011;4063;48.140;10.250;2022-11-20T15:27:07;5.33;;;3.80;;
8040;SDS011;4063;48.140;10.250;2022-11-20T15:29:34;3.03;;;2.70;;
8040;SDS011;4063;48.140;10.250;2022-11-20T15:31:59;2.87;;;2.67;;
8040;SDS011;4063;48.140;10.250;2022-11-20T15:34:26;4.00;;;3.50;;
8040;SDS011;4063;48.140;10.250;2022-11-20T15:36:52;5.87;;;3.67;;
8040;SDS011;4063;48.140;10.250;2022-11-20T15:39:19;9.20;;;4.73;;
8040;SDS011;4063;48.140;10.250;2022-11-20T15:41:46;8.87;;;4.30;;
8040;SDS011;4063;48.140;10.250;2022-11-20T15:44:12;7.03;;;4.30;;
8040;SDS011;4063;48.140;10.250;2022-11-20T15:46:41;5.13;;;3.30;;
8040;SDS011;4063;48.140;10.250;2022-11-20T15:49:11;3.47;;;2.97;;
8040;SDS011;4063;48.140;10.250;2022-11-20T15:51:38;5.37;;;3.33;;
8040;SDS011;4063;48.140;10.250;2022-11-20T15:54:09;9.23;;;7.23;;
8040;SDS011;4063;48.140;10.250;2022-11-20T15:56:36;6.93;;;4.20;;
8040;SDS011;4063;48.140;10.250;2022-11-20T15:59:02;8.20;;;4.80;;
8040;SDS011;4063;48.140;10.250;2022-11-20T16:01:28;11.13;;;5.97;;
8040;SDS011;4063;48.140;10.250;2022-11-20T16:03:54;12.40;;;7.80;;
8040;SDS011;4063;48.140;10.250;2022-11-20T16:06:21;5.27;;;4.00;;
8040;SDS011;4063;48.140;10.250;2022-11-20T16:08:47;3.97;;;2.97;;
8040;SDS011;4063;48.140;10.250;2022-11-20T16:11:14;3.73;;;3.43;;
8040;SDS011;4063;48.140;10.250;2022-11-20T16:13:40;3.10;;;2.80;;
8040;SDS011;4063;48.140;10.250;2022-11-20T16:16:26;3.07;;;2.67;;
8040;SDS011;4063;48.140;10.250;2022-11-20T16:18:53;3.03;;;2.70;;
8040;SDS011;4063;48.140;10.250;2022-11-20T16:21:20;3.27;;;2.93;;
8040;SDS011;4063;48.140;10.250;2022-11-20T16:23:58;3.30;;;3.00;;
8040;SDS011;4063;48.140;10.250;2022-11-20T16:26:24;3.43;;;3.13;;
8040;SDS011;4063;48.140;10.250;2022-11-20T16:28:50;3.33;;;3.03;;
8040;SDS011;4063;48.140;10.250;2022-11-20T16:31:17;3.93;;;3.53;;
8040;SDS011;4063;48.140;10.250;2022-11-20T16:33:50;3.07;;;2.77;;
8040;SDS011;4063;48.140;10.250;2022-11-20T16:36:16;4.03;;;3.03;;
8040;SDS011;4063;48.140;10.250;2022-11-20T16:38:43;4.07;;;3.30;;
8040;SDS011;4063;48.140;10.250;2022-11-20T16:41:09;4.13;;;3.50;;
8040;SDS011;4063;48.140;10.250;2022-11-20T16:43:48;3.63;;;3.33;;